Chitato Airport


Codes: FNCH/PGI
Name: Chitato Airport
City: Chitato
Country: Angola
Elevation: 2500 ft.

Photos at Chitato Airport


   Photos courtesy of SpottingLog. You can add your own sightings and photos by signing up for a free trial today.



No photos found.

Weather at Chitato Airport


Time (UTC)DescriptionTempratureWindCloud coverageVisibilityPressureHumidity
26-Jun-2024 00:00Few Clouds20°C4 mph, SE11%10000m1013hPa37%
26-Jun-2024 03:00Broken Clouds19°C4 mph, SE67%10000m1013hPa41%
26-Jun-2024 06:00Overcast Clouds20°C4 mph, SE92%10000m1015hPa39%
26-Jun-2024 09:00Few Clouds30°C9 mph, SE23%10000m1014hPa22%
26-Jun-2024 12:00Scattered Clouds33°C7 mph, SE28%10000m1010hPa16%
26-Jun-2024 15:00Scattered Clouds33°C7 mph, SE29%10000m1008hPa15%
26-Jun-2024 18:00Broken Clouds24°C4 mph, SE61%10000m1011hPa25%
26-Jun-2024 21:00Broken Clouds22°C4 mph, SE68%10000m1013hPa30%
27-Jun-2024 00:00Broken Clouds20°C4 mph, SE76%10000m1012hPa34%
27-Jun-2024 03:00Scattered Clouds18°C4 mph, SE30%10000m1013hPa39%
27-Jun-2024 06:00Few Clouds21°C7 mph, S15%10000m1014hPa35%
27-Jun-2024 09:00Clear Sky31°C9 mph, SE8%10000m1013hPa20%
27-Jun-2024 12:00Clear Sky34°C7 mph, SE7%10000m1010hPa15%
27-Jun-2024 15:00Scattered Clouds34°C7 mph, SE43%10000m1008hPa14%
27-Jun-2024 18:00Scattered Clouds25°C2 mph, SE37%10000m1011hPa24%
27-Jun-2024 21:00Few Clouds22°C4 mph, S23%10000m1012hPa28%
28-Jun-2024 00:00Few Clouds20°C4 mph, S18%10000m1012hPa33%
28-Jun-2024 03:00Broken Clouds18°C2 mph, SE51%10000m1012hPa38%
28-Jun-2024 06:00Broken Clouds21°C4 mph, S68%10000m1014hPa34%
28-Jun-2024 09:00Overcast Clouds31°C9 mph, SE94%10000m1013hPa20%
28-Jun-2024 12:00Overcast Clouds35°C7 mph, SE95%10000m1009hPa15%
28-Jun-2024 15:00Overcast Clouds34°C7 mph, SE99%10000m1008hPa15%
28-Jun-2024 18:00Overcast Clouds25°C2 mph, SE96%10000m1011hPa26%
28-Jun-2024 21:00Overcast Clouds23°C4 mph, SE100%10000m1012hPa29%
29-Jun-2024 00:00Overcast Clouds21°C4 mph, S91%10000m1012hPa33%
29-Jun-2024 03:00Broken Clouds19°C2 mph, SE82%10000m1012hPa37%
29-Jun-2024 06:00Broken Clouds21°C4 mph, S62%10000m1014hPa33%
29-Jun-2024 09:00Few Clouds32°C7 mph, SE15%10000m1012hPa18%
29-Jun-2024 12:00Scattered Clouds36°C4 mph, SE31%10000m1009hPa13%
29-Jun-2024 15:00Overcast Clouds35°C4 mph, SE98%10000m1007hPa14%
29-Jun-2024 18:00Overcast Clouds26°C2 mph, S99%10000m1010hPa23%
29-Jun-2024 21:00Overcast Clouds23°C2 mph, S87%10000m1011hPa27%
30-Jun-2024 00:00Scattered Clouds21°C4 mph, S47%10000m1011hPa30%
30-Jun-2024 03:00Scattered Clouds19°C2 mph, SE46%10000m1012hPa35%
30-Jun-2024 06:00Broken Clouds21°C2 mph, SW62%10000m1014hPa32%
30-Jun-2024 09:00Broken Clouds31°C4 mph, SE84%10000m1013hPa18%
30-Jun-2024 12:00Overcast Clouds36°C4 mph, E85%10000m1009hPa14%
30-Jun-2024 15:00Overcast Clouds34°C2 mph, E100%10000m1008hPa15%
30-Jun-2024 18:00Overcast Clouds26°C0 mph, S100%10000m1010hPa24%
30-Jun-2024 21:00Overcast Clouds24°C0 mph, SE100%10000m1012hPa28%